Time;durP1;ratioP1;P1;durP2;ratioP2;P2;SDS_P1;SDS_P2;PMS_P1;PMS_P2;Temp;Humidity;BMP_temperature;BMP_pressure;BME280_temperature;BME280_humidity;BME280_pressure;Samples;Min_cycle;Max_cycle;Signal;HPM_P1;HPM_P2
2023/01/17 00:01:06;;;;;;;1.70;0.90;;;4.40;99.90;;;;;;5074500;28;20128;-72
2023/01/17 00:09:51;;;;;;;7.32;1.23;;;4.40;99.90;;;;;;5074884;28;20041;-72
2023/01/17 00:11:55;;;;;;;0.50;0.50;;;4.30;99.90;;;;;;5073738;28;20040;-71
2023/01/17 00:14:21;;;;;;;0.65;0.57;;;4.20;99.90;;;;;;5073876;28;20045;-72
2023/01/17 00:16:46;;;;;;;0.32;0.30;;;4.00;99.90;;;;;;5072023;28;20044;-72
2023/01/17 01:33:52;;;;;;;3.65;1.20;;;4.00;99.90;;;;;;5061992;28;20040;-71
2023/01/17 01:36:18;;;;;;;4.90;1.20;;;4.00;99.90;;;;;;5077207;28;20036;-72
2023/01/17 01:38:44;;;;;;;1.92;1.20;;;4.00;99.90;;;;;;5076736;28;20083;-72
2023/01/17 01:41:10;;;;;;;1.10;0.85;;;4.00;99.90;;;;;;5059581;28;20365;-72
2023/01/17 01:43:47;;;;;;;2.08;1.13;;;4.00;99.90;;;;;;5076686;28;20066;-72
2023/01/17 01:46:26;;;;;;;2.60;1.30;;;4.00;99.90;;;;;;5076617;28;20044;-72
2023/01/17 01:49:19;;;;;;;4.07;1.23;;;4.00;99.90;;;;;;5076571;28;20046;-72
2023/01/17 01:51:51;;;;;;;4.28;1.30;;;3.90;99.90;;;;;;5077127;28;20044;-72
2023/01/17 01:54:21;;;;;;;2.07;1.13;;;3.90;99.90;;;;;;5059210;28;20041;-72
2023/01/17 01:56:51;;;;;;;1.60;1.13;;;4.10;99.90;;;;;;5077282;28;20370;-72
2023/01/17 01:59:19;;;;;;;6.15;1.45;;;3.90;99.90;;;;;;5058761;28;20048;-72
2023/01/17 02:01:46;;;;;;;1.48;0.93;;;3.90;99.90;;;;;;5058434;28;20041;-72
2023/01/17 02:04:13;;;;;;;3.08;1.27;;;4.30;99.90;;;;;;5077211;28;20041;-73
2023/01/17 02:06:46;;;;;;;3.58;1.58;;;3.90;99.90;;;;;;5076553;28;20496;-73
2023/01/17 02:09:14;;;;;;;3.40;1.33;;;4.00;99.90;;;;;;5076826;28;20045;-72
2023/01/17 02:11:40;;;;;;;6.13;1.42;;;3.90;99.90;;;;;;5076154;28;20044;-72
2023/01/17 02:14:06;;;;;;;1.23;1.13;;;3.90;99.90;;;;;;5076891;28;20036;-72
2023/01/17 02:16:42;;;;;;;3.42;1.23;;;3.90;99.90;;;;;;5076816;28;20495;-72
2023/01/17 02:19:39;;;;;;;7.13;1.77;;;3.80;99.90;;;;;;5076154;28;20049;-72
2023/01/17 02:22:33;;;;;;;8.10;1.60;;;3.80;99.90;;;;;;5076021;28;20462;-72
2023/01/17 02:24:58;;;;;;;3.33;1.33;;;3.70;99.90;;;;;;5075962;28;20051;-71
2023/01/17 02:28:05;;;;;;;8.43;1.58;;;3.70;99.90;;;;;;5075883;28;20036;-72
2023/01/17 02:30:41;;;;;;;3.05;1.45;;;3.70;99.90;;;;;;5031022;28;20045;-71
2023/01/17 02:33:15;;;;;;;2.58;1.20;;;3.70;99.90;;;;;;5076662;28;20381;-72
2023/01/17 02:35:53;;;;;;;3.50;1.65;;;3.70;99.90;;;;;;5075737;28;20037;-72
2023/01/17 02:38:56;;;;;;;7.93;2.05;;;3.80;99.90;;;;;;5074877;28;20473;-72
2023/01/17 02:41:28;;;;;;;2.83;2.22;;;3.70;99.90;;;;;;5075587;28;20044;-72
2023/01/17 02:43:55;;;;;;;;;;;3.70;99.90;;;;;;5076641;28;20457;-72
2023/01/17 02:46:21;;;;;;;2.45;1.38;;;3.70;99.90;;;;;;5057949;28;19920;-72
2023/01/17 02:48:47;;;;;;;3.72;1.55;;;3.70;99.90;;;;;;5058137;28;20074;-73
2023/01/17 02:51:58;;;;;;;3.30;1.30;;;3.90;99.90;;;;;;5075879;28;20428;-68
2023/01/17 02:55:05;;;;;;;3.95;1.73;;;3.80;99.90;;;;;;5071679;28;20102;-66
2023/01/17 02:57:57;;;;;;;5.22;2.17;;;3.80;99.90;;;;;;5073931;28;20478;-66
2023/01/17 03:00:52;;;;;;;6.85;1.83;;;3.80;99.90;;;;;;5075313;28;20083;-66
2023/01/17 03:03:20;;;;;;;2.58;1.55;;;3.90;99.90;;;;;;5075072;28;20040;-66
2023/01/17 03:06:10;;;;;;;5.25;1.67;;;3.90;99.90;;;;;;5075160;28;20094;-66
2023/01/17 03:08:42;;;;;;;6.72;1.42;;;3.90;99.90;;;;;;5075918;28;20086;-66
2023/01/17 03:11:10;;;;;;;3.37;1.80;;;4.00;99.90;;;;;;5057142;28;20123;-66
2023/01/17 03:13:37;;;;;;;7.70;1.65;;;4.40;99.90;;;;;;5075498;28;20354;-66
2023/01/17 03:16:06;;;;;;;4.35;1.95;;;4.00;99.90;;;;;;5074844;28;20072;-65
2023/01/17 03:18:33;;;;;;;5.55;2.00;;;4.00;99.90;;;;;;5075380;28;20036;-65
2023/01/17 03:20:59;;;;;;;3.60;1.17;;;4.00;99.90;;;;;;5074373;28;20355;-65
2023/01/17 03:23:24;;;;;;;2.88;1.80;;;4.10;99.90;;;;;;5074812;28;20048;-65
2023/01/17 03:25:50;;;;;;;4.03;1.80;;;4.00;99.90;;;;;;5074668;28;20499;-66
2023/01/17 03:28:16;;;;;;;7.20;1.95;;;3.90;99.90;;;;;;5075752;28;20048;-65
2023/01/17 03:30:41;;;;;;;2.63;1.40;;;3.90;99.90;;;;;;5073960;28;20044;-65
2023/01/17 03:33:07;;;;;;;5.85;1.30;;;3.90;99.90;;;;;;5075146;28;20040;-66
2023/01/17 03:35:33;;;;;;;4.00;1.80;;;3.90;99.90;;;;;;5074452;28;20033;-66
2023/01/17 03:37:59;;;;;;;3.13;1.27;;;3.90;99.90;;;;;;5074102;28;20040;-66
2023/01/17 03:40:24;;;;;;;6.35;1.80;;;3.90;99.90;;;;;;5074977;28;20044;-65
2023/01/17 03:42:50;;;;;;;4.40;1.60;;;4.10;99.90;;;;;;5073780;28;20117;-65
2023/01/17 03:45:16;;;;;;;3.15;1.45;;;3.80;99.90;;;;;;5056451;28;20135;-65
2023/01/17 03:47:42;;;;;;;2.65;1.30;;;3.80;99.90;;;;;;5074571;28;20076;-65
2023/01/17 03:50:08;;;;;;;3.20;1.50;;;3.80;99.90;;;;;;5073781;28;20314;-66
2023/01/17 03:52:34;;;;;;;6.35;1.52;;;3.70;99.90;;;;;;5074480;28;20087;-66
2023/01/17 03:55:01;;;;;;;3.67;1.10;;;3.80;99.90;;;;;;5074426;28;20048;-65
2023/01/17 03:57:27;;;;;;;2.10;1.92;;;3.70;99.90;;;;;;5056632;28;20048;-67
2023/01/17 03:59:53;;;;;;;6.13;1.52;;;3.70;99.90;;;;;;5074001;28;20044;-66
2023/01/17 04:02:19;;;;;;;4.97;1.35;;;3.70;99.90;;;;;;5074083;28;20040;-65
2023/01/17 04:04:44;;;;;;;2.28;1.13;;;3.70;99.90;;;;;;5074032;28;20032;-65
2023/01/17 04:07:10;;;;;;;5.20;2.55;;;3.70;99.90;;;;;;5073998;28;20040;-65
2023/01/17 04:09:36;;;;;;;4.53;1.52;;;3.70;99.90;;;;;;5056334;28;20037;-65
2023/01/17 04:12:02;;;;;;;3.90;1.33;;;3.70;99.90;;;;;;5073646;28;20174;-65
2023/01/17 04:14:28;;;;;;;3.08;1.70;;;3.70;99.90;;;;;;5073728;28;20072;-65
2023/01/17 04:16:55;;;;;;;5.53;1.60;;;3.70;99.90;;;;;;5056101;28;20111;-65
2023/01/17 04:19:21;;;;;;;1.75;1.45;;;3.60;99.90;;;;;;5073756;28;20110;-65
2023/01/17 04:21:46;;;;;;;3.08;1.40;;;3.60;99.90;;;;;;5055933;28;20076;-65
2023/01/17 04:24:12;;;;;;;5.20;2.03;;;3.70;99.90;;;;;;5073777;28;20127;-65
2023/01/17 04:26:37;;;;;;;4.03;1.35;;;3.50;99.90;;;;;;5073742;28;20036;-65
2023/01/17 04:29:03;;;;;;;3.05;1.40;;;3.40;99.90;;;;;;5073425;28;20047;-65
2023/01/17 04:31:29;;;;;;;3.53;1.50;;;3.40;99.90;;;;;;5073750;28;20101;-65
2023/01/17 04:33:55;;;;;;;3.35;1.27;;;3.30;99.90;;;;;;5074024;28;20476;-65
2023/01/17 04:36:21;;;;;;;3.30;1.50;;;3.30;99.90;;;;;;5073638;28;20451;-65
2023/01/17 04:38:46;;;;;;;3.95;1.60;;;3.70;99.90;;;;;;5073620;28;20052;-65
2023/01/17 04:41:12;;;;;;;8.13;1.50;;;3.20;99.90;;;;;;5055724;28;20040;-65
2023/01/17 04:43:38;;;;;;;4.78;1.75;;;3.30;99.90;;;;;;5073603;28;20124;-65
2023/01/17 04:46:08;;;;;;;6.35;1.90;;;3.30;99.90;;;;;;5074184;28;20437;-65
2023/01/17 04:48:34;;;;;;;2.88;1.15;;;3.20;99.90;;;;;;5073704;28;20048;-65
2023/01/17 04:51:02;;;;;;;2.75;1.60;;;3.20;99.90;;;;;;5073498;28;20040;-65
2023/01/17 04:53:27;;;;;;;5.35;1.65;;;3.20;99.90;;;;;;5073507;28;20059;-65
2023/01/17 04:55:53;;;;;;;2.85;1.55;;;3.10;99.90;;;;;;5073514;28;20045;-65
2023/01/17 04:58:19;;;;;;;3.17;1.40;;;3.30;99.90;;;;;;5073402;28;20063;-65
2023/01/17 05:00:49;;;;;;;2.97;1.40;;;3.30;99.90;;;;;;5074265;28;20037;-65
2023/01/17 05:03:16;;;;;;;7.20;1.70;;;3.10;99.90;;;;;;5077770;28;20438;-65
2023/01/17 05:05:43;;;;;;;2.35;1.30;;;3.10;99.90;;;;;;5077404;28;20461;-65
2023/01/17 05:08:08;;;;;;;3.92;1.85;;;3.60;99.90;;;;;;5078190;28;20113;-65
2023/01/17 05:10:34;;;;;;;3.20;1.38;;;3.10;99.90;;;;;;5077874;28;20420;-65
2023/01/17 05:13:00;;;;;;;3.58;1.20;;;3.10;99.90;;;;;;5077901;28;20052;-65
2023/01/17 05:15:26;;;;;;;1.40;0.98;;;3.10;99.90;;;;;;5077261;28;20147;-65
2023/01/17 05:17:52;;;;;;;1.30;1.08;;;3.00;99.90;;;;;;5059255;28;20036;-65
2023/01/17 05:20:20;;;;;;;1.80;1.08;;;3.00;99.90;;;;;;5077138;28;20471;-65
2023/01/17 05:22:54;;;;;;;1.63;1.13;;;3.20;99.90;;;;;;5059382;28;20380;-65
2023/01/17 05:25:25;;;;;;;3.45;1.15;;;3.00;99.90;;;;;;5076329;28;20055;-65
2023/01/17 05:27:51;;;;;;;2.55;0.95;;;3.20;99.90;;;;;;5076965;28;20044;-65
2023/01/17 05:30:18;;;;;;;1.33;1.08;;;2.90;99.90;;;;;;5060124;28;20356;-65
2023/01/17 05:32:50;;;;;;;2.63;1.25;;;2.90;99.90;;;;;;5076857;28;20123;-65
2023/01/17 05:35:18;;;;;;;4.25;1.30;;;2.80;99.90;;;;;;5077015;28;20055;-65
2023/01/17 05:37:48;;;;;;;2.53;1.25;;;3.00;99.90;;;;;;5076716;28;20137;-65
2023/01/17 05:40:15;;;;;;;3.58;1.33;;;3.00;99.90;;;;;;5076784;28;20043;-65
2023/01/17 05:42:48;;;;;;;4.72;1.80;;;2.80;99.90;;;;;;5077511;28;20381;-65
2023/01/17 05:45:15;;;;;;;;;;;2.80;99.90;;;;;;5059028;28;20045;-65
2023/01/17 05:47:43;;;;;;;5.57;1.55;;;2.70;99.90;;;;;;5076631;28;19916;-65
2023/01/17 05:50:13;;;;;;;7.38;1.70;;;2.70;99.90;;;;;;5076517;28;20473;-65
2023/01/17 05:52:40;;;;;;;3.70;1.70;;;2.70;99.90;;;;;;5058788;28;20047;-65
2023/01/17 05:55:06;;;;;;;3.97;1.30;;;2.70;99.90;;;;;;5076133;28;20429;-65
2023/01/17 05:57:32;;;;;;;4.78;1.88;;;2.70;99.90;;;;;;5076927;28;20040;-65
2023/01/17 05:59:58;;;;;;;10.20;1.95;;;2.70;99.90;;;;;;5076390;28;20040;-65
2023/01/17 06:02:24;;;;;;;3.17;1.85;;;2.60;99.90;;;;;;5076425;28;20047;-65
2023/01/17 06:04:49;;;;;;;4.07;1.52;;;2.60;99.90;;;;;;5076321;28;20583;-65
2023/01/17 06:07:15;;;;;;;3.22;1.35;;;2.60;99.90;;;;;;5076276;28;20059;-65
2023/01/17 06:09:41;;;;;;;3.45;1.35;;;2.70;99.90;;;;;;5074883;28;20079;-66
2023/01/17 06:12:06;;;;;;;6.97;2.28;;;2.70;99.90;;;;;;5076141;28;20127;-65
2023/01/17 06:14:32;;;;;;;6.20;1.30;;;2.70;99.90;;;;;;5075199;28;20043;-65
2023/01/17 06:16:58;;;;;;;4.53;1.63;;;2.60;99.90;;;;;;5075859;28;20043;-65
2023/01/17 06:19:23;;;;;;;6.03;2.45;;;2.60;99.90;;;;;;5058245;28;20607;-65
2023/01/17 06:21:49;;;;;;;3.78;1.15;;;2.70;99.90;;;;;;5058214;28;20051;-67
2023/01/17 06:24:15;;;;;;;5.88;1.60;;;2.80;99.90;;;;;;5075918;28;20044;-66
2023/01/17 06:26:43;;;;;;;3.72;1.48;;;2.60;99.90;;;;;;5076082;28;20082;-67
2023/01/17 06:29:10;;;;;;;3.95;2.03;;;2.50;99.90;;;;;;5075720;28;20048;-66
2023/01/17 06:31:36;;;;;;;4.53;1.70;;;2.50;99.90;;;;;;5041515;28;20136;-66
2023/01/17 06:34:02;;;;;;;4.35;1.27;;;2.40;99.90;;;;;;5075823;28;20123;-66
2023/01/17 06:36:29;;;;;;;3.47;1.35;;;2.40;99.90;;;;;;5057961;28;20040;-66
2023/01/17 06:38:54;;;;;;;3.30;1.65;;;2.40;99.90;;;;;;5075142;28;20044;-67
2023/01/17 06:41:22;;;;;;;3.90;1.50;;;3.00;99.90;;;;;;5074981;28;20040;-66
2023/01/17 06:43:48;;;;;;;3.17;1.33;;;2.30;99.90;;;;;;5075022;28;20097;-66
2023/01/17 06:46:14;;;;;;;2.25;1.10;;;2.30;99.90;;;;;;5074894;28;20421;-67
2023/01/17 06:48:42;;;;;;;3.03;1.45;;;2.30;99.90;;;;;;5075657;28;20045;-65
2023/01/17 06:51:08;;;;;;;5.13;1.50;;;2.20;99.90;;;;;;5075412;28;20104;-66
2023/01/17 06:53:34;;;;;;;5.68;1.25;;;2.20;99.90;;;;;;5074449;28;20044;-65
2023/01/17 06:56:00;;;;;;;4.45;1.40;;;2.10;99.90;;;;;;5075003;28;20122;-66
2023/01/17 06:58:25;;;;;;;1.90;1.10;;;2.70;99.90;;;;;;5074145;28;20043;-66
2023/01/17 07:00:51;;;;;;;2.72;1.30;;;2.10;99.90;;;;;;5057008;28;20056;-68
2023/01/17 07:03:23;;;;;;;5.55;2.03;;;2.10;99.90;;;;;;5074297;28;20043;-66
2023/01/17 07:05:49;;;;;;;2.38;1.50;;;2.20;99.90;;;;;;5074565;28;20047;-67
2023/01/17 07:08:16;;;;;;;3.67;1.30;;;2.20;99.90;;;;;;5074473;28;20045;-66
2023/01/17 07:10:43;;;;;;;3.45;1.02;;;2.30;99.90;;;;;;5074104;28;20036;-66
2023/01/17 07:13:10;;;;;;;1.65;1.27;;;2.00;99.90;;;;;;5073407;28;20053;-67
2023/01/17 07:15:35;;;;;;;2.88;1.13;;;2.00;99.90;;;;;;5074685;28;20135;-65
2023/01/17 07:18:02;;;;;;;1.23;1.00;;;2.40;99.90;;;;;;5055735;28;20124;-68
2023/01/17 07:20:28;;;;;;;1.27;1.17;;;1.90;99.90;;;;;;5073030;28;20489;-66
2023/01/17 07:22:54;;;;;;;3.85;1.30;;;2.00;99.90;;;;;;5074335;28;20087;-66
2023/01/17 07:25:20;;;;;;;3.15;1.20;;;1.90;99.90;;;;;;5073765;28;20484;-66
2023/01/17 07:27:45;;;;;;;4.20;2.00;;;2.10;99.90;;;;;;5073849;28;20033;-66
2023/01/17 07:30:12;;;;;;;2.92;1.27;;;1.90;99.90;;;;;;5073744;28;20534;-66
2023/01/17 07:32:38;;;;;;;3.38;1.30;;;1.90;99.90;;;;;;5073893;28;20523;-66
2023/01/17 07:35:04;;;;;;;1.52;1.08;;;1.90;99.90;;;;;;5055602;28;20076;-66
2023/01/17 07:37:30;;;;;;;1.55;1.30;;;1.90;99.90;;;;;;5073565;28;20082;-66
2023/01/17 07:39:56;;;;;;;2.58;1.30;;;2.20;99.90;;;;;;5074237;28;20095;-67
2023/01/17 07:42:22;;;;;;;2.10;1.50;;;2.50;99.90;;;;;;5073755;28;20385;-66
2023/01/17 07:44:48;;;;;;;5.20;1.40;;;2.00;99.90;;;;;;5073183;28;20492;-67
2023/01/17 07:47:13;;;;;;;1.10;1.10;;;2.00;99.90;;;;;;5073933;28;20049;-66
2023/01/17 07:49:39;;;;;;;1.48;1.27;;;1.90;99.90;;;;;;5073727;28;20076;-65
2023/01/17 07:52:06;;;;;;;2.30;1.55;;;1.90;99.90;;;;;;5073221;28;20532;-65
2023/01/17 07:54:32;;;;;;;2.50;1.02;;;2.10;99.90;;;;;;5073740;28;20040;-64
2023/01/17 07:56:57;;;;;;;2.22;1.45;;;2.00;99.90;;;;;;5072921;28;20384;-65
2023/01/17 07:59:23;;;;;;;2.40;1.65;;;2.10;99.90;;;;;;5073417;28;20560;-67
2023/01/17 08:01:48;;;;;;;2.92;1.40;;;1.90;99.90;;;;;;5072972;28;20473;-68
2023/01/17 08:04:14;;;;;;;2.33;1.60;;;2.10;99.90;;;;;;5073316;28;20354;-65
2023/01/17 08:06:43;;;;;;;1.67;1.05;;;2.40;99.90;;;;;;5073917;28;20043;-66
2023/01/17 08:09:08;;;;;;;2.58;1.23;;;1.90;99.90;;;;;;5073018;28;20449;-66
2023/01/17 08:11:34;;;;;;;2.05;1.50;;;1.90;99.90;;;;;;5073134;28;20081;-66
2023/01/17 08:14:00;;;;;;;3.08;1.23;;;2.00;99.90;;;;;;5074203;28;20043;-66
2023/01/17 08:16:27;;;;;;;3.00;1.40;;;2.00;99.90;;;;;;5072865;28;20040;-66
2023/01/17 08:18:54;;;;;;;7.72;1.23;;;2.50;99.90;;;;;;5056121;28;20124;-66
2023/01/17 08:21:20;;;;;;;2.95;1.10;;;2.00;99.90;;;;;;5074745;28;20045;-66
2023/01/17 08:23:50;;;;;;;1.45;1.25;;;2.20;99.90;;;;;;5073827;28;20098;-66
2023/01/17 08:26:23;;;;;;;1.60;1.20;;;2.10;99.90;;;;;;5073371;28;20385;-67
2023/01/17 08:28:59;;;;;;;1.30;1.10;;;2.10;99.90;;;;;;5073947;28;20127;-65
2023/01/17 08:31:26;;;;;;;4.88;2.15;;;2.20;99.90;;;;;;5073992;28;20048;-66
2023/01/17 08:33:52;;;;;;;1.98;1.27;;;2.40;99.90;;;;;;5073446;28;20047;-66
2023/01/17 08:36:18;;;;;;;2.53;1.10;;;2.20;99.90;;;;;;5073245;28;20036;-65
2023/01/17 08:38:45;;;;;;;2.08;1.00;;;2.30;99.90;;;;;;5073807;28;20346;-66
2023/01/17 08:41:11;;;;;;;1.92;1.48;;;2.20;99.90;;;;;;5073386;28;20040;-66
2023/01/17 08:43:37;;;;;;;2.00;1.10;;;2.80;99.90;;;;;;5073732;28;20056;-66
2023/01/17 08:46:05;;;;;;;4.35;1.27;;;2.50;99.90;;;;;;5073361;28;20390;-66
2023/01/17 08:48:30;;;;;;;2.53;1.60;;;2.20;99.90;;;;;;5073436;28;20044;-66
2023/01/17 08:51:00;;;;;;;3.47;1.55;;;2.30;99.90;;;;;;5073201;28;20047;-67
2023/01/17 08:53:26;;;;;;;3.53;1.13;;;2.30;99.90;;;;;;5055927;28;20549;-66
2023/01/17 08:56:03;;;;;;;4.63;1.35;;;2.30;99.90;;;;;;5038844;28;20041;-66
2023/01/17 08:58:30;;;;;;;4.88;1.38;;;3.00;99.90;;;;;;5073933;28;20043;-66
2023/01/17 09:01:01;;;;;;;4.05;1.77;;;2.40;99.90;;;;;;5073314;28;20076;-66
2023/01/17 09:03:26;;;;;;;5.35;1.67;;;2.40;99.90;;;;;;5073381;28;20050;-66
2023/01/17 09:06:04;;;;;;;4.00;1.60;;;2.50;99.90;;;;;;5055974;28;20123;-66
2023/01/17 09:08:30;;;;;;;5.32;1.33;;;2.50;99.90;;;;;;5055986;28;20080;-66
2023/01/17 09:10:56;;;;;;;2.47;1.10;;;2.60;99.90;;;;;;5073260;28;20098;-67
2023/01/17 09:13:21;;;;;;;2.35;1.10;;;2.60;99.90;;;;;;5073172;28;20140;-66
2023/01/17 09:15:47;;;;;;;1.77;1.52;;;2.60;99.90;;;;;;5074094;28;20048;-66
2023/01/17 09:18:13;;;;;;;2.08;1.20;;;2.70;99.90;;;;;;5073212;28;20515;-66
2023/01/17 09:20:39;;;;;;;2.00;1.27;;;2.70;99.90;;;;;;5073353;28;20111;-67
2023/01/17 09:23:05;;;;;;;1.83;1.45;;;2.80;99.90;;;;;;5073144;28;20048;-67
2023/01/17 09:25:31;;;;;;;2.65;1.88;;;2.80;99.90;;;;;;5073762;28;20093;-67
2023/01/17 09:27:56;;;;;;;3.20;1.20;;;2.80;99.90;;;;;;5055189;28;20600;-66
2023/01/17 09:30:22;;;;;;;2.22;1.20;;;2.80;99.90;;;;;;5073658;28;20048;-66
2023/01/17 09:32:54;;;;;;;1.38;1.00;;;2.90;99.90;;;;;;5055165;28;20158;-66
2023/01/17 09:35:20;;;;;;;1.63;1.50;;;2.90;99.90;;;;;;5073869;28;20049;-66
2023/01/17 09:37:50;;;;;;;2.60;1.10;;;3.00;99.90;;;;;;5073504;28;20143;-66
2023/01/17 09:40:23;;;;;;;4.55;1.83;;;3.30;99.90;;;;;;5038959;28;20123;-66
2023/01/17 09:42:56;;;;;;;1.73;1.10;;;3.10;99.90;;;;;;5073058;28;20048;-66
2023/01/17 09:45:24;;;;;;;3.80;1.40;;;3.10;99.90;;;;;;5073041;28;20047;-66
2023/01/17 09:47:53;;;;;;;3.17;1.27;;;3.10;99.90;;;;;;5073025;28;20044;-66
2023/01/17 09:50:40;;;;;;;4.28;1.42;;;3.10;99.90;;;;;;5059567;28;20083;-67
2023/01/17 09:53:15;;;;;;;4.55;1.30;;;3.10;99.90;;;;;;5076580;28;20131;-66
2023/01/17 09:56:13;;;;;;;4.28;1.20;;;3.10;99.90;;;;;;5076493;28;20041;-66
2023/01/17 09:58:54;;;;;;;1.58;1.00;;;3.20;99.90;;;;;;5077335;28;20037;-66
2023/01/17 10:01:32;;;;;;;2.80;1.33;;;3.30;99.90;;;;;;5076386;28;20047;-66
2023/01/17 10:04:28;;;;;;;1.85;1.40;;;3.30;99.90;;;;;;5076126;28;20044;-67
2023/01/17 10:07:00;;;;;;;2.08;1.17;;;3.50;99.90;;;;;;5058849;28;20055;-66
2023/01/17 10:09:36;;;;;;;3.70;1.05;;;3.60;99.90;;;;;;5076915;28;20040;-66
2023/01/17 10:12:28;;;;;;;1.95;0.95;;;3.80;99.90;;;;;;5076302;28;20127;-67
2023/01/17 10:15:08;;;;;;;2.03;1.30;;;4.00;99.90;;;;;;5072664;28;20067;-66
2023/01/17 10:17:51;;;;;;;1.70;1.42;;;4.10;99.90;;;;;;5076076;28;20042;-66
2023/01/17 10:20:17;;;;;;;;;;;4.10;99.90;;;;;;5076505;28;20110;-66
2023/01/17 10:23:02;;;;;;;3.42;1.15;;;4.00;99.90;;;;;;5075969;28;19920;-67
2023/01/17 10:25:31;;;;;;;1.38;1.02;;;4.10;99.90;;;;;;5075958;28;20036;-66
2023/01/17 10:28:04;;;;;;;4.60;1.63;;;4.00;99.90;;;;;;5058235;28;20052;-66
2023/01/17 10:30:36;;;;;;;3.60;1.00;;;4.00;99.90;;;;;;5076222;28;20036;-66
2023/01/17 10:33:12;;;;;;;1.73;1.48;;;3.90;99.90;;;;;;5059012;28;20051;-66
2023/01/17 10:35:49;;;;;;;2.70;1.38;;;4.00;99.90;;;;;;5042440;28;20101;-66
2023/01/17 10:38:16;;;;;;;2.25;0.98;;;3.80;99.90;;;;;;5075693;28;20119;-66
2023/01/17 10:41:09;;;;;;;1.60;1.17;;;3.80;99.90;;;;;;5058404;28;20052;-66
2023/01/17 10:43:40;;;;;;;;;;;3.80;99.90;;;;;;5076642;28;20044;-66
2023/01/17 10:46:17;;;;;;;3.35;1.92;;;3.80;99.90;;;;;;5058122;28;19985;-66
2023/01/17 10:48:49;;;;;;;1.30;1.20;;;3.90;99.90;;;;;;5058219;28;20097;-66
2023/01/17 10:51:41;;;;;;;1.80;1.33;;;3.90;99.90;;;;;;5075455;28;20040;-66
2023/01/17 10:54:37;;;;;;;3.63;1.38;;;4.00;99.90;;;;;;5075420;28;20087;-66
2023/01/17 10:57:03;;;;;;;2.15;1.48;;;4.00;99.90;;;;;;5076162;28;20044;-66
2023/01/17 10:59:32;;;;;;;3.20;1.52;;;4.10;99.90;;;;;;5074920;28;20465;-66
2023/01/17 11:01:58;;;;;;;1.85;1.10;;;4.10;99.90;;;;;;5057889;28;20076;-66
2023/01/17 11:04:36;;;;;;;2.28;1.70;;;4.20;99.90;;;;;;5075181;28;20044;-66
2023/01/17 11:07:12;;;;;;;1.48;1.10;;;4.20;99.90;;;;;;5074299;28;20362;-67
2023/01/17 11:09:40;;;;;;;2.65;1.33;;;4.20;99.90;;;;;;5075786;28;20037;-67
2023/01/17 11:12:17;;;;;;;2.47;1.20;;;4.30;99.90;;;;;;5074945;28;20040;-67
2023/01/17 11:14:57;;;;;;;2.33;1.23;;;4.30;99.90;;;;;;5075614;28;20051;-67
2023/01/17 11:17:23;;;;;;;1.33;1.23;;;4.40;99.90;;;;;;5073927;28;20458;-67
2023/01/17 11:19:50;;;;;;;2.00;1.20;;;4.40;99.90;;;;;;5074777;28;20048;-66
2023/01/17 11:22:16;;;;;;;10.40;2.13;;;4.40;99.90;;;;;;5057243;28;20048;-67
2023/01/17 11:24:55;;;;;;;1.42;1.00;;;4.50;99.90;;;;;;5074152;28;20087;-66
2023/01/17 11:27:31;;;;;;;1.40;1.20;;;4.50;99.90;;;;;;5055977;28;20054;-67
2023/01/17 11:30:15;;;;;;;0.82;0.80;;;4.50;99.90;;;;;;5075241;28;20048;-67
2023/01/17 11:32:58;;;;;;;4.50;1.30;;;4.60;99.90;;;;;;5074636;28;20040;-66
2023/01/17 11:35:30;;;;;;;2.90;1.38;;;4.60;99.90;;;;;;5073545;28;20115;-67
2023/01/17 11:38:18;;;;;;;4.05;1.60;;;4.60;99.90;;;;;;5074085;28;20055;-67
2023/01/17 11:40:45;;;;;;;3.67;1.60;;;4.70;99.90;;;;;;5073847;28;20083;-67
2023/01/17 11:43:11;;;;;;;2.88;1.20;;;4.70;99.90;;;;;;5074298;28;20105;-67
2023/01/17 11:45:40;;;;;;;1.33;1.02;;;4.70;99.90;;;;;;5055170;28;20481;-67
2023/01/17 11:48:12;;;;;;;1.50;1.10;;;4.70;99.90;;;;;;5073265;28;20044;-68
2023/01/17 11:50:52;;;;;;;2.20;1.00;;;4.80;99.90;;;;;;5073468;28;20127;-67
2023/01/17 11:53:23;;;;;;;4.95;1.58;;;4.80;99.90;;;;;;5073048;28;20032;-67
2023/01/17 11:56:17;;;;;;;5.15;1.20;;;4.90;99.90;;;;;;5055523;28;20481;-67
2023/01/17 11:58:44;;;;;;;2.28;1.42;;;4.90;99.90;;;;;;5074095;28;20417;-67
2023/01/17 12:01:30;;;;;;;1.27;1.17;;;4.90;99.90;;;;;;5073204;28;20041;-67
2023/01/17 12:04:24;;;;;;;0.88;0.88;;;4.90;99.90;;;;;;5074396;28;20037;-67
2023/01/17 12:07:19;;;;;;;1.25;0.93;;;4.90;99.90;;;;;;5073867;28;20097;-66
2023/01/17 12:10:05;;;;;;;1.55;1.20;;;5.00;99.90;;;;;;5073945;28;20106;-67
2023/01/17 12:15:35;;;;;;;1.52;1.30;;;5.00;99.90;;;;;;5073888;28;20048;-67
2023/01/17 12:18:32;;;;;;;2.50;2.00;;;5.10;99.90;;;;;;5073638;28;20036;-66
2023/01/17 12:21:15;;;;;;;3.20;1.10;;;5.00;99.90;;;;;;5074420;28;20049;-66
2023/01/17 12:23:59;;;;;;;1.90;1.75;;;5.10;99.90;;;;;;5073750;28;20040;-67
2023/01/17 12:26:37;;;;;;;2.13;1.00;;;5.20;99.90;;;;;;5073936;28;20109;-66
2023/01/17 12:29:35;;;;;;;1.23;0.80;;;5.20;99.90;;;;;;5074046;28;20115;-66
2023/01/17 12:32:29;;;;;;;2.67;0.90;;;5.20;99.90;;;;;;5067010;28;20493;-67
2023/01/17 12:35:21;;;;;;;2.60;1.15;;;5.30;99.90;;;;;;5073424;28;20084;-67
2023/01/17 12:37:57;;;;;;;3.55;1.27;;;5.30;99.90;;;;;;5062799;28;20056;-67
2023/01/17 12:40:29;;;;;;;4.85;1.35;;;5.30;99.90;;;;;;5074481;28;20124;-66
2023/01/17 12:43:11;;;;;;;2.10;1.00;;;5.40;99.90;;;;;;5073356;28;20076;-67
2023/01/17 12:45:44;;;;;;;2.08;1.02;;;5.40;99.90;;;;;;5073067;28;20374;-67
2023/01/17 12:48:15;;;;;;;0.80;0.80;;;5.40;99.90;;;;;;5073257;28;20132;-67
2023/01/17 12:50:59;;;;;;;2.55;1.67;;;5.40;99.90;;;;;;5073689;28;20041;-67
2023/01/17 12:53:56;;;;;;;2.65;0.90;;;5.40;99.90;;;;;;5074226;28;20054;-66
2023/01/17 12:56:28;;;;;;;2.83;1.25;;;5.50;99.90;;;;;;5073352;28;20051;-67
2023/01/17 12:59:04;;;;;;;3.57;1.30;;;5.70;99.90;;;;;;5073510;28;20076;-66
2023/01/17 13:01:38;;;;;;;0.70;0.65;;;5.80;99.90;;;;;;5055526;28;20489;-66
2023/01/17 13:04:25;;;;;;;4.32;1.23;;;5.90;99.90;;;;;;5073689;28;20066;-67
2023/01/17 13:07:17;;;;;;;1.05;0.98;;;6.00;99.90;;;;;;5073366;28;20094;-67
2023/01/17 13:09:52;;;;;;;1.65;0.95;;;6.10;99.90;;;;;;5073408;28;20458;-66
2023/01/17 13:12:21;;;;;;;3.40;1.75;;;6.30;99.90;;;;;;5073429;28;20053;-66
2023/01/17 13:14:47;;;;;;;2.25;0.80;;;6.40;99.90;;;;;;5073036;28;20126;-67
2023/01/17 13:17:43;;;;;;;3.47;0.80;;;6.30;99.90;;;;;;5073155;28;20036;-66
2023/01/17 13:20:21;;;;;;;4.97;0.90;;;6.40;99.90;;;;;;5055535;28;20040;-66
2023/01/17 13:22:50;;;;;;;1.80;1.17;;;6.30;99.90;;;;;;5074526;28;20457;-67
2023/01/17 13:25:38;;;;;;;5.93;2.15;;;6.40;99.90;;;;;;5076144;28;20045;-67
2023/01/17 13:28:20;;;;;;;0.85;0.77;;;6.30;99.90;;;;;;5077093;28;20036;-66
2023/01/17 13:31:33;;;;;;;1.13;1.10;;;6.20;99.90;;;;;;5076502;28;20071;-66
2023/01/17 13:34:22;;;;;;;2.50;0.95;;;6.30;99.90;;;;;;5069398;28;20063;-66
2023/01/17 13:37:00;;;;;;;1.58;0.80;;;6.20;99.90;;;;;;5076298;28;20047;-66
2023/01/17 13:39:32;;;;;;;2.33;1.48;;;6.30;99.90;;;;;;5059019;28;20411;-67
2023/01/17 13:42:25;;;;;;;0.93;0.90;;;6.30;99.90;;;;;;5076596;28;20040;-66
2023/01/17 13:44:51;;;;;;;3.58;0.70;;;6.40;99.90;;;;;;5075829;28;20538;-67
2023/01/17 13:47:16;;;;;;;1.38;0.80;;;6.30;99.90;;;;;;5075694;28;20465;-67
2023/01/17 13:49:48;;;;;;;3.45;0.90;;;6.20;99.90;;;;;;5057833;28;20048;-67
2023/01/17 13:52:19;;;;;;;2.03;1.05;;;6.10;99.90;;;;;;5075907;28;20041;-67
2023/01/17 13:54:49;;;;;;;1.10;1.00;;;5.90;99.90;;;;;;5058203;28;20052;-67
2023/01/17 13:57:28;;;;;;;1.38;0.70;;;5.80;99.90;;;;;;5075277;28;20032;-67
2023/01/17 14:00:20;;;;;;;0.98;0.98;;;5.50;99.90;;;;;;5058253;28;20044;-67
2023/01/17 14:02:50;;;;;;;4.85;1.95;;;5.40;99.90;;;;;;5076673;28;20055;-65
2023/01/17 14:05:21;;;;;;;4.05;0.68;;;5.40;99.90;;;;;;5076213;28;20041;-66
2023/01/17 14:08:01;;;;;;;1.67;0.73;;;5.30;99.90;;;;;;5076122;28;20043;-66
2023/01/17 14:10:39;;;;;;;1.90;0.80;;;5.30;99.90;;;;;;5058690;28;20045;-64
2023/01/17 14:13:38;;;;;;;0.88;0.77;;;5.30;99.90;;;;;;5075881;28;20498;-64
2023/01/17 14:16:27;;;;;;;1.65;0.88;;;5.20;99.90;;;;;;5076191;28;20075;-65
2023/01/17 14:18:54;;;;;;;5.95;1.17;;;5.20;99.90;;;;;;5076410;28;20091;-67
2023/01/17 14:21:38;;;;;;;1.40;1.30;;;5.30;99.90;;;;;;5075783;28;20127;-66
2023/01/17 14:24:09;;;;;;;2.78;0.82;;;5.20;99.90;;;;;;5076001;28;20036;-66
2023/01/17 14:26:45;;;;;;;1.08;0.68;;;5.20;99.90;;;;;;5075957;28;20097;-67
2023/01/17 14:29:48;;;;;;;4.60;1.30;;;5.20;99.90;;;;;;5076005;28;20219;-67
2023/01/17 14:32:27;;;;;;;1.08;0.95;;;5.10;99.90;;;;;;5076158;28;20492;-66
2023/01/17 14:34:53;;;;;;;0.70;0.70;;;5.10;99.90;;;;;;5075078;28;20062;-66
2023/01/17 14:37:39;;;;;;;1.75;0.70;;;5.10;99.90;;;;;;5057365;28;20033;-67
2023/01/17 14:40:17;;;;;;;0.82;0.70;;;5.00;99.90;;;;;;5075510;28;20099;-67
2023/01/17 14:42:44;;;;;;;0.60;0.60;;;4.90;99.90;;;;;;5075763;28;20072;-66
2023/01/17 14:45:17;;;;;;;2.33;0.57;;;5.00;99.90;;;;;;5075604;28;20071;-66
2023/01/17 14:47:44;;;;;;;0.60;0.60;;;4.90;99.90;;;;;;5075330;28;20040;-67